Time;durP1;ratioP1;P1;durP2;ratioP2;P2;SDS_P1;SDS_P2;PMS_P1;PMS_P2;Temp;Humidity;BMP_temperature;BMP_pressure;BME280_temperature;BME280_humidity;BME280_pressure;Samples;Min_cycle;Max_cycle;Signal;HPM_P1;HPM_P2
2021/07/05 00:00:14;;;;;;;2.10;1.90;;;16.90;99.90;;;;;;5013971;28;20421;-65
2021/07/05 00:02:41;;;;;;;2.90;2.70;;;16.90;99.90;;;;;;4996717;28;20229;-66
2021/07/05 00:05:08;;;;;;;2.20;2.10;;;16.80;99.90;;;;;;5014145;28;20449;-66
2021/07/05 00:07:34;;;;;;;2.23;1.77;;;16.80;99.90;;;;;;5013879;28;20504;-66
2021/07/05 00:10:00;;;;;;;1.87;1.77;;;16.80;99.90;;;;;;5013792;28;20899;-66
2021/07/05 00:12:26;;;;;;;1.53;1.33;;;16.70;99.90;;;;;;5014255;28;20518;-65
2021/07/05 00:14:51;;;;;;;2.17;1.53;;;16.70;99.90;;;;;;5014004;28;20171;-65
2021/07/05 00:17:17;;;;;;;1.90;1.80;;;16.80;99.90;;;;;;4996330;28;20779;-66
2021/07/05 00:19:42;;;;;;;2.30;1.90;;;16.80;99.90;;;;;;5013650;28;20171;-66
2021/07/05 00:22:08;;;;;;;1.63;1.53;;;16.90;99.90;;;;;;5013702;28;20206;-66
2021/07/05 00:24:34;;;;;;;2.03;1.93;;;16.90;99.90;;;;;;5013822;28;20416;-66
2021/07/05 00:26:59;;;;;;;2.40;1.70;;;17.00;99.90;;;;;;5013585;28;20207;-66
2021/07/05 00:29:25;;;;;;;2.10;2.00;;;17.00;99.90;;;;;;5013406;28;20178;-66
2021/07/05 00:31:51;;;;;;;1.67;1.57;;;17.00;99.90;;;;;;4996189;28;20267;-66
2021/07/05 00:34:17;;;;;;;1.73;1.63;;;17.00;99.90;;;;;;5013712;28;20217;-66
2021/07/05 00:36:42;;;;;;;1.93;1.83;;;17.00;99.90;;;;;;5013382;28;20532;-65
2021/07/05 00:39:08;;;;;;;1.97;1.77;;;17.00;99.90;;;;;;5013242;28;20262;-66
2021/07/05 00:41:34;;;;;;;3.20;1.70;;;16.90;99.90;;;;;;5013450;28;20547;-66
2021/07/05 00:43:59;;;;;;;1.43;1.33;;;16.90;99.90;;;;;;5013447;28;20625;-66
2021/07/05 00:46:26;;;;;;;1.90;1.80;;;16.80;99.90;;;;;;5013330;28;20210;-66
2021/07/05 00:48:52;;;;;;;2.93;1.77;;;16.80;99.90;;;;;;5013573;28;20171;-66
2021/07/05 00:51:17;;;;;;;2.90;1.80;;;16.80;99.90;;;;;;5013255;28;20941;-65
2021/07/05 00:53:48;;;;;;;2.07;1.90;;;16.80;99.90;;;;;;5013346;28;20425;-65
2021/07/05 00:56:14;;;;;;;1.70;1.60;;;16.80;99.90;;;;;;5013406;28;20214;-66
2021/07/05 00:58:40;;;;;;;2.43;1.30;;;16.70;99.90;;;;;;5012926;28;20421;-66
2021/07/05 01:01:05;;;;;;;5.97;1.80;;;16.70;99.90;;;;;;5013326;28;20418;-66
2021/07/05 01:03:31;;;;;;;1.97;1.87;;;16.60;99.90;;;;;;5013392;28;20597;-66
2021/07/05 01:05:57;;;;;;;3.10;1.90;;;16.60;99.90;;;;;;5012931;28;20191;-66
2021/07/05 01:08:22;;;;;;;1.80;1.70;;;16.60;99.90;;;;;;5012867;28;20453;-66
2021/07/05 01:10:48;;;;;;;4.27;1.97;;;16.60;99.90;;;;;;5013290;28;20535;-66
2021/07/05 01:13:14;;;;;;;3.57;2.00;;;16.60;99.90;;;;;;5012952;28;20596;-66
2021/07/05 01:15:40;;;;;;;4.33;2.07;;;16.60;99.90;;;;;;5012849;28;20209;-66
2021/07/05 01:18:06;;;;;;;1.70;1.60;;;16.60;99.90;;;;;;5012873;28;20179;-66
2021/07/05 01:20:34;;;;;;;3.73;1.50;;;16.60;99.90;;;;;;5012483;28;20171;-66
2021/07/05 01:23:00;;;;;;;1.77;1.67;;;16.60;99.90;;;;;;5013009;28;20511;-66
2021/07/05 01:25:28;;;;;;;2.70;1.87;;;16.70;99.90;;;;;;5012697;28;20433;-66
2021/07/05 01:27:54;;;;;;;1.97;1.60;;;16.70;99.90;;;;;;5012597;28;20194;-66
2021/07/05 01:30:21;;;;;;;2.70;1.40;;;16.70;99.90;;;;;;5012291;28;20444;-66
2021/07/05 01:32:48;;;;;;;2.07;1.97;;;16.70;99.90;;;;;;5012741;28;20414;-66
2021/07/05 01:35:15;;;;;;;1.70;1.50;;;16.70;99.90;;;;;;5012449;28;20784;-66
2021/07/05 01:37:42;;;;;;;1.80;1.70;;;16.70;99.90;;;;;;5012536;28;20460;-66
2021/07/05 01:40:14;;;;;;;1.97;1.87;;;16.70;99.90;;;;;;5012290;28;20413;-66
2021/07/05 01:42:40;;;;;;;3.30;1.93;;;16.70;99.90;;;;;;5012537;28;20449;-66
2021/07/05 01:45:07;;;;;;;3.90;1.90;;;16.60;99.90;;;;;;4995011;28;20481;-65
2021/07/05 01:47:33;;;;;;;4.17;1.70;;;16.70;99.90;;;;;;5012841;28;20202;-66
2021/07/05 01:49:58;;;;;;;1.73;1.63;;;16.70;99.90;;;;;;5012109;28;20413;-66
2021/07/05 01:52:24;;;;;;;1.60;1.50;;;16.70;99.90;;;;;;5011685;28;20175;-65
2021/07/05 01:54:49;;;;;;;2.70;2.13;;;16.60;99.90;;;;;;5012151;28;20174;-66
2021/07/05 01:57:27;;;;;;;2.10;2.00;;;16.60;99.90;;;;;;5012360;28;20174;-66
2021/07/05 01:59:58;;;;;;;1.70;1.60;;;16.60;99.90;;;;;;5011806;28;20182;-65
2021/07/05 02:02:25;;;;;;;2.70;2.00;;;16.70;99.90;;;;;;5012158;28;20480;-66
2021/07/05 02:04:51;;;;;;;2.23;1.93;;;16.60;99.90;;;;;;5012039;28;20504;-65
2021/07/05 02:07:17;;;;;;;3.57;2.07;;;16.60;99.90;;;;;;5012094;28;20481;-65
2021/07/05 02:09:43;;;;;;;2.00;1.90;;;16.60;99.90;;;;;;5011955;28;20448;-66
2021/07/05 02:12:10;;;;;;;3.00;1.90;;;16.70;99.90;;;;;;5012162;28;20911;-66
2021/07/05 02:14:35;;;;;;;2.37;2.17;;;16.60;99.90;;;;;;5012025;28;20414;-66
2021/07/05 02:17:01;;;;;;;3.13;2.03;;;16.50;99.90;;;;;;5012506;28;20503;-66
2021/07/05 02:19:27;;;;;;;2.00;1.90;;;16.40;99.90;;;;;;5011844;28;20163;-66
2021/07/05 02:21:53;;;;;;;2.97;1.73;;;16.30;99.90;;;;;;5012086;28;20835;-66
2021/07/05 02:24:18;;;;;;;2.43;1.77;;;16.30;99.90;;;;;;5012107;28;20171;-65
2021/07/05 02:26:44;;;;;;;1.80;1.70;;;16.30;99.90;;;;;;5012010;28;20198;-66
2021/07/05 02:29:10;;;;;;;1.90;1.80;;;16.30;99.90;;;;;;5011518;28;20203;-65
2021/07/05 02:31:36;;;;;;;2.13;1.70;;;16.30;99.90;;;;;;5012010;28;20262;-66
2021/07/05 02:34:04;;;;;;;1.73;1.60;;;16.30;99.90;;;;;;5011969;28;21074;-65
2021/07/05 02:36:29;;;;;;;2.10;1.80;;;16.30;99.90;;;;;;5011838;28;20183;-65
2021/07/05 02:38:55;;;;;;;1.90;1.80;;;16.30;99.90;;;;;;5011667;28;20989;-65
2021/07/05 02:41:21;;;;;;;2.10;2.00;;;16.40;99.90;;;;;;4994327;28;20714;-66
2021/07/05 02:43:46;;;;;;;3.33;2.10;;;16.40;99.90;;;;;;5011701;28;20535;-66
2021/07/05 02:46:12;;;;;;;2.70;2.50;;;16.50;99.90;;;;;;5011779;28;20193;-66
2021/07/05 02:48:40;;;;;;;1.77;1.67;;;16.50;99.90;;;;;;5011503;28;20289;-65
2021/07/05 02:51:08;;;;;;;2.10;2.00;;;16.50;99.90;;;;;;5011823;28;20172;-66
2021/07/05 02:53:34;;;;;;;2.70;1.70;;;16.50;99.90;;;;;;5011800;28;20414;-65
2021/07/05 02:56:00;;;;;;;3.07;2.50;;;16.50;99.90;;;;;;5011735;28;20463;-66
2021/07/05 02:58:25;;;;;;;3.23;2.53;;;16.50;99.90;;;;;;5011217;28;20425;-65
2021/07/05 03:00:54;;;;;;;3.83;1.90;;;16.50;99.90;;;;;;5011738;28;20421;-66
2021/07/05 03:03:20;;;;;;;2.33;1.90;;;16.50;99.90;;;;;;5013067;28;20636;-66
2021/07/05 03:05:46;;;;;;;3.13;2.07;;;16.50;99.90;;;;;;5015316;28;20437;-65
2021/07/05 03:08:13;;;;;;;2.07;1.90;;;16.50;99.90;;;;;;5015114;28;20560;-64
2021/07/05 03:10:41;;;;;;;3.20;1.80;;;16.50;99.90;;;;;;5014367;28;20636;-66
2021/07/05 03:13:09;;;;;;;2.07;1.97;;;16.50;99.90;;;;;;5015160;28;20413;-65
2021/07/05 03:15:35;;;;;;;1.90;1.80;;;16.50;99.90;;;;;;5015084;28;20505;-65
2021/07/05 03:18:01;;;;;;;5.00;3.33;;;16.60;99.90;;;;;;5015150;28;20417;-66
2021/07/05 03:20:30;;;;;;;3.87;3.57;;;16.60;99.90;;;;;;5014876;28;20500;-66
2021/07/05 03:22:58;;;;;;;2.90;2.57;;;16.60;99.90;;;;;;5015099;28;20175;-66
2021/07/05 03:25:25;;;;;;;3.03;1.60;;;16.60;99.90;;;;;;5015020;28;20434;-65
2021/07/05 03:27:51;;;;;;;3.50;2.00;;;16.60;99.90;;;;;;5014807;28;20454;-65
2021/07/05 03:30:19;;;;;;;3.40;2.37;;;16.60;99.90;;;;;;5014616;28;20421;-66
2021/07/05 03:32:46;;;;;;;2.00;1.90;;;16.70;99.90;;;;;;5014977;28;20984;-66
2021/07/05 03:35:13;;;;;;;3.33;2.17;;;16.60;99.90;;;;;;5014811;28;20446;-66
2021/07/05 03:37:39;;;;;;;2.40;2.30;;;16.60;99.90;;;;;;5014777;28;20424;-66
2021/07/05 03:40:09;;;;;;;3.50;2.33;;;16.60;99.90;;;;;;5014486;28;20433;-66
2021/07/05 03:42:35;;;;;;;2.30;2.10;;;16.60;99.90;;;;;;5014641;28;20445;-66
2021/07/05 03:45:02;;;;;;;2.50;2.30;;;16.60;99.90;;;;;;5014583;28;20562;-66
2021/07/05 03:47:27;;;;;;;2.47;2.27;;;16.60;99.90;;;;;;5014538;28;20970;-66
2021/07/05 03:49:53;;;;;;;1.97;1.87;;;16.60;99.90;;;;;;5014325;28;20475;-66
2021/07/05 03:52:18;;;;;;;3.27;3.07;;;16.60;99.90;;;;;;5014505;28;20167;-65
2021/07/05 03:54:44;;;;;;;2.63;2.43;;;16.60;99.90;;;;;;5014345;28;20627;-66
2021/07/05 03:57:21;;;;;;;2.03;1.93;;;16.60;99.90;;;;;;5038190;23;20230;-64
2021/07/05 03:59:54;;;;;;;2.80;2.60;;;16.50;99.90;;;;;;5019149;28;20425;-64
2021/07/05 04:02:20;;;;;;;1.97;1.87;;;16.50;99.90;;;;;;5013109;28;20501;-65
2021/07/05 04:04:46;;;;;;;2.80;2.60;;;16.50;99.90;;;;;;5013007;28;20409;-64
2021/07/05 04:07:13;;;;;;;3.03;2.83;;;16.50;99.90;;;;;;5014079;28;20461;-64
2021/07/05 04:09:39;;;;;;;3.47;2.60;;;16.50;99.90;;;;;;5012595;28;20422;-64
2021/07/05 04:12:06;;;;;;;3.00;2.80;;;16.50;99.90;;;;;;5013998;28;20484;-64
2021/07/05 04:14:32;;;;;;;3.27;2.97;;;16.50;99.90;;;;;;5013453;28;20472;-63
2021/07/05 04:16:58;;;;;;;3.80;2.30;;;16.60;99.90;;;;;;5014034;28;20512;-64
2021/07/05 04:19:23;;;;;;;2.27;2.07;;;16.60;99.90;;;;;;5013707;28;20632;-64
2021/07/05 04:21:49;;;;;;;2.47;2.00;;;16.70;99.90;;;;;;5014114;28;20171;-63
2021/07/05 04:24:14;;;;;;;2.80;2.00;;;16.70;99.90;;;;;;5013915;28;20656;-65
2021/07/05 04:26:40;;;;;;;2.50;2.30;;;16.70;99.90;;;;;;5013836;28;20203;-64
2021/07/05 04:29:05;;;;;;;7.83;2.60;;;16.70;99.90;;;;;;5013343;28;20164;-64
2021/07/05 04:31:31;;;;;;;6.80;2.60;;;16.70;99.90;;;;;;5013852;28;20163;-64
2021/07/05 04:33:56;;;;;;;4.43;2.60;;;16.60;99.90;;;;;;4997400;28;20261;-64
2021/07/05 04:36:22;;;;;;;2.97;2.47;;;16.60;99.90;;;;;;4994065;28;20187;-63
2021/07/05 04:38:47;;;;;;;3.27;2.67;;;16.70;99.90;;;;;;4993711;28;20184;-64
2021/07/05 04:41:13;;;;;;;2.30;2.20;;;16.60;99.90;;;;;;4993846;28;20222;-65
2021/07/05 04:43:39;;;;;;;2.63;2.43;;;16.60;99.90;;;;;;4993873;28;20172;-64
2021/07/05 04:46:07;;;;;;;2.40;2.17;;;16.60;99.90;;;;;;4993850;28;20449;-63
2021/07/05 04:48:33;;;;;;;4.90;3.30;;;16.70;99.90;;;;;;4993556;28;20202;-65
2021/07/05 04:51:00;;;;;;;4.70;3.03;;;16.70;99.90;;;;;;4993783;28;20514;-64
2021/07/05 04:53:26;;;;;;;12.83;7.33;;;16.80;99.90;;;;;;4993711;28;20513;-64
2021/07/05 04:55:55;;;;;;;7.20;2.50;;;16.90;99.90;;;;;;4993328;28;20542;-63
2021/07/05 04:58:21;;;;;;;3.53;2.30;;;17.10;99.90;;;;;;4999751;28;20179;-64
2021/07/05 05:00:47;;;;;;;2.63;2.43;;;17.20;99.90;;;;;;5000466;28;20436;-64
2021/07/05 05:03:13;;;;;;;2.93;2.40;;;17.20;99.90;;;;;;5000003;28;20435;-64
2021/07/05 05:05:41;;;;;;;5.07;3.40;;;17.20;99.90;;;;;;5004456;28;20208;-64
2021/07/05 05:08:08;;;;;;;2.63;2.23;;;17.30;99.90;;;;;;5003695;28;20195;-65
2021/07/05 05:10:34;;;;;;;2.70;2.50;;;17.40;99.90;;;;;;5008504;28;20963;-64
2021/07/05 05:12:59;;;;;;;2.30;2.10;;;17.50;99.90;;;;;;5018984;28;20434;-63
2021/07/05 05:15:25;;;;;;;2.27;2.17;;;17.50;99.90;;;;;;4998546;28;20184;-64
2021/07/05 05:17:51;;;;;;;1.97;1.87;;;17.50;99.90;;;;;;5001868;28;20552;-64
2021/07/05 05:20:18;;;;;;;4.50;2.27;;;17.50;99.90;;;;;;4992553;28;20548;-64
2021/07/05 05:22:43;;;;;;;2.10;1.90;;;17.50;99.90;;;;;;4994020;28;20460;-64
2021/07/05 05:25:10;;;;;;;2.27;2.17;;;17.60;99.90;;;;;;5003949;28;20431;-64
2021/07/05 05:27:37;;;;;;;3.10;2.90;;;17.60;99.90;;;;;;4993300;28;20242;-65
2021/07/05 05:30:05;;;;;;;2.73;2.10;;;17.70;99.90;;;;;;5006133;28;20493;-63
2021/07/05 05:32:31;;;;;;;2.30;2.20;;;17.70;99.90;;;;;;5000832;28;20435;-65
2021/07/05 05:34:56;;;;;;;4.80;2.33;;;17.80;99.90;;;;;;5005273;28;20929;-64
2021/07/05 05:37:22;;;;;;;3.97;2.63;;;17.90;99.90;;;;;;5006716;28;20199;-64
2021/07/05 05:39:47;;;;;;;1.93;1.80;;;18.00;99.90;;;;;;5002162;28;20663;-64
2021/07/05 05:42:13;;;;;;;2.43;2.17;;;17.90;99.90;;;;;;5006441;28;20179;-64
2021/07/05 05:44:39;;;;;;;2.07;1.87;;;17.90;99.90;;;;;;4996917;28;20266;-65
2021/07/05 05:47:04;;;;;;;3.43;2.17;;;17.80;99.90;;;;;;4992869;28;20290;-64
2021/07/05 05:49:30;;;;;;;2.30;2.10;;;17.70;99.90;;;;;;4992622;28;20687;-64
2021/07/05 05:51:55;;;;;;;2.80;2.60;;;17.70;99.90;;;;;;4993059;28;20533;-64
2021/07/05 05:54:21;;;;;;;2.57;2.40;;;17.70;99.90;;;;;;4992790;28;20203;-64
2021/07/05 05:56:52;;;;;;;2.47;2.27;;;17.70;99.90;;;;;;4992933;28;20237;-64
2021/07/05 05:59:17;;;;;;;3.67;2.30;;;17.60;99.90;;;;;;4991332;28;20171;-64
2021/07/05 06:01:48;;;;;;;3.53;2.50;;;17.60;99.90;;;;;;4994633;28;20810;-64
2021/07/05 06:04:13;;;;;;;2.53;2.43;;;17.60;99.90;;;;;;5012346;28;20167;-64
2021/07/05 06:06:39;;;;;;;2.37;2.17;;;17.60;99.90;;;;;;5012000;28;20441;-64
2021/07/05 06:09:05;;;;;;;4.70;2.63;;;17.60;99.90;;;;;;5011910;28;20175;-64
2021/07/05 06:11:31;;;;;;;3.10;2.70;;;17.60;99.90;;;;;;5012234;28;20178;-65
2021/07/05 06:13:57;;;;;;;3.37;2.53;;;17.60;99.90;;;;;;5012304;28;20428;-65
2021/07/05 06:16:23;;;;;;;3.13;2.70;;;17.60;99.90;;;;;;5006482;28;20529;-65
2021/07/05 06:18:48;;;;;;;2.33;2.13;;;17.60;99.90;;;;;;5032067;28;20174;-65
2021/07/05 06:21:14;;;;;;;2.93;2.13;;;17.50;99.90;;;;;;5032403;28;20439;-65
2021/07/05 06:23:39;;;;;;;2.87;2.50;;;17.50;99.90;;;;;;5031826;28;20542;-63
2021/07/05 06:26:05;;;;;;;6.03;2.50;;;17.40;99.90;;;;;;5031874;28;20220;-64
2021/07/05 06:28:33;;;;;;;3.27;2.60;;;17.40;99.90;;;;;;4999697;28;20742;-63
2021/07/05 06:31:01;;;;;;;3.77;2.83;;;17.50;99.90;;;;;;4992652;28;20179;-64
2021/07/05 06:33:27;;;;;;;2.47;2.27;;;17.50;99.90;;;;;;5012093;28;20453;-64
2021/07/05 06:35:52;;;;;;;4.07;3.60;;;17.70;99.90;;;;;;5011994;28;20484;-63
2021/07/05 06:38:19;;;;;;;2.73;2.53;;;17.70;99.90;;;;;;5009511;28;20273;-65
2021/07/05 06:40:46;;;;;;;2.67;2.47;;;17.60;99.90;;;;;;5016190;28;20551;-63
2021/07/05 06:43:13;;;;;;;2.60;2.30;;;17.70;99.90;;;;;;5015812;28;20428;-63
2021/07/05 06:45:39;;;;;;;3.17;2.93;;;17.60;99.90;;;;;;5015776;28;20532;-64
2021/07/05 06:48:05;;;;;;;2.93;2.50;;;17.60;99.90;;;;;;5009903;28;20472;-64
2021/07/05 06:50:31;;;;;;;2.30;1.90;;;17.50;99.90;;;;;;5010918;28;20855;-63
2021/07/05 06:52:57;;;;;;;2.47;2.27;;;17.50;99.90;;;;;;4996011;28;20168;-63
2021/07/05 06:55:23;;;;;;;3.53;3.23;;;17.50;99.90;;;;;;4995840;28;20429;-63
2021/07/05 06:57:48;;;;;;;2.40;2.20;;;17.50;99.90;;;;;;5000567;28;20178;-62
2021/07/05 07:00:17;;;;;;;4.63;1.90;;;17.50;99.90;;;;;;5015396;28;20171;-64
2021/07/05 07:02:43;;;;;;;4.83;4.50;;;17.40;99.90;;;;;;5011926;28;20462;-63
2021/07/05 07:05:14;;;;;;;4.43;2.40;;;17.50;99.90;;;;;;5014139;28;20472;-63
2021/07/05 07:07:41;;;;;;;2.23;2.03;;;17.50;99.90;;;;;;5002389;28;20461;-63
2021/07/05 07:10:08;;;;;;;3.10;2.80;;;17.50;99.90;;;;;;5008978;28;20517;-63
2021/07/05 07:12:38;;;;;;;2.87;2.67;;;17.50;99.90;;;;;;5011728;28;20422;-63
2021/07/05 07:15:08;;;;;;;5.50;3.40;;;17.50;99.90;;;;;;5021776;28;20428;-63
2021/07/05 07:17:38;;;;;;;2.30;2.10;;;17.50;99.90;;;;;;5028291;28;21057;-64
2021/07/05 07:20:07;;;;;;;2.40;2.20;;;17.50;99.90;;;;;;5021027;28;20516;-63
2021/07/05 07:22:33;;;;;;;3.10;2.20;;;17.50;99.90;;;;;;5011824;28;20457;-63
2021/07/05 07:24:59;;;;;;;3.23;2.93;;;17.50;99.90;;;;;;5011843;28;20414;-63
2021/07/05 07:27:24;;;;;;;2.70;2.40;;;17.60;99.90;;;;;;5014428;28;20464;-63
2021/07/05 07:29:50;;;;;;;2.70;2.50;;;17.60;99.90;;;;;;5014194;28;20548;-64
2021/07/05 07:32:16;;;;;;;2.13;2.00;;;17.60;99.90;;;;;;5011746;28;20222;-63
2021/07/05 07:34:41;;;;;;;2.83;2.60;;;17.60;99.90;;;;;;5011738;28;20185;-63
2021/07/05 07:37:08;;;;;;;3.47;2.60;;;17.60;99.90;;;;;;5008567;28;20283;-63
2021/07/05 07:39:38;;;;;;;2.80;2.60;;;17.70;99.90;;;;;;5011405;28;20627;-63
2021/07/05 07:42:03;;;;;;;5.80;2.40;;;17.80;99.90;;;;;;5011097;28;20524;-63
2021/07/05 07:44:29;;;;;;;2.87;2.37;;;18.00;99.90;;;;;;5011423;28;20509;-63
2021/07/05 07:46:55;;;;;;;2.80;2.60;;;18.10;99.90;;;;;;5010721;28;20281;-63
2021/07/05 07:49:20;;;;;;;2.37;2.27;;;18.10;99.90;;;;;;5028261;28;20210;-64
2021/07/05 07:51:46;;;;;;;3.50;2.30;;;18.10;99.90;;;;;;5030962;28;20669;-64
2021/07/05 07:54:11;;;;;;;6.10;4.10;;;18.10;99.90;;;;;;5031097;28;20170;-63
2021/07/05 07:56:37;;;;;;;3.13;2.50;;;18.10;99.90;;;;;;5031114;28;20634;-64
2021/07/05 07:59:03;;;;;;;3.67;2.60;;;17.90;99.90;;;;;;5011760;28;20179;-64
2021/07/05 08:01:29;;;;;;;2.60;2.40;;;17.80;99.90;;;;;;5011865;28;20203;-64
2021/07/05 08:03:55;;;;;;;2.73;2.50;;;17.70;99.90;;;;;;5019780;28;20417;-64
2021/07/05 08:06:22;;;;;;;4.37;2.33;;;17.70;99.90;;;;;;5010983;28;20601;-64
2021/07/05 08:08:51;;;;;;;4.40;2.47;;;17.60;99.90;;;;;;5007523;28;20493;-64
2021/07/05 08:11:17;;;;;;;5.83;2.70;;;17.60;99.90;;;;;;5011065;28;20414;-64
2021/07/05 08:13:42;;;;;;;3.43;2.37;;;17.60;99.90;;;;;;5010513;28;20566;-64
2021/07/05 08:16:08;;;;;;;2.03;1.93;;;17.50;99.90;;;;;;5010935;28;20230;-64
2021/07/05 08:18:34;;;;;;;3.87;1.97;;;17.50;99.90;;;;;;5007385;28;20194;-64
2021/07/05 08:21:00;;;;;;;3.70;2.50;;;17.40;99.90;;;;;;5006759;28;20179;-64
2021/07/05 08:23:25;;;;;;;2.90;2.70;;;17.40;99.90;;;;;;4997322;28;20614;-64
2021/07/05 08:25:51;;;;;;;2.90;2.60;;;17.50;99.90;;;;;;4991492;28;20961;-63
2021/07/05 08:28:17;;;;;;;3.57;2.90;;;17.40;99.90;;;;;;4999316;28;20214;-63
2021/07/05 08:30:42;;;;;;;2.90;2.70;;;17.30;99.90;;;;;;4991071;28;20916;-63
2021/07/05 08:33:08;;;;;;;3.50;3.20;;;17.30;99.90;;;;;;4991061;28;20752;-63
2021/07/05 08:35:34;;;;;;;4.60;4.00;;;17.30;99.90;;;;;;4990866;28;20199;-63
2021/07/05 08:38:00;;;;;;;3.17;2.87;;;17.30;99.90;;;;;;4997097;28;20221;-63
2021/07/05 08:40:26;;;;;;;3.37;3.07;;;17.40;99.90;;;;;;5010169;28;20457;-63
2021/07/05 08:42:54;;;;;;;3.30;3.00;;;17.40;99.90;;;;;;5010157;28;20205;-64
2021/07/05 08:45:21;;;;;;;2.93;2.70;;;17.50;99.90;;;;;;5010391;28;20542;-63
2021/07/05 08:47:50;;;;;;;2.93;2.73;;;17.50;99.90;;;;;;5006904;28;20461;-64
2021/07/05 08:50:17;;;;;;;2.63;2.40;;;17.60;99.90;;;;;;5010099;28;20501;-63
2021/07/05 08:52:45;;;;;;;2.60;2.40;;;17.50;99.90;;;;;;5010268;28;20422;-64
2021/07/05 08:55:20;;;;;;;2.90;2.70;;;17.50;99.90;;;;;;5009615;28;20804;-63
2021/07/05 08:57:46;;;;;;;5.90;2.70;;;17.60;99.90;;;;;;5006740;28;20583;-63
2021/07/05 09:00:24;;;;;;;3.00;2.47;;;17.60;99.90;;;;;;5009841;28;20993;-63
2021/07/05 09:02:50;;;;;;;3.93;3.63;;;17.60;99.90;;;;;;5012237;28;20456;-63
2021/07/05 09:05:16;;;;;;;7.70;6.83;;;17.70;99.90;;;;;;5029641;28;20498;-63
2021/07/05 09:07:57;;;;;;;3.60;2.70;;;17.80;99.90;;;;;;5026015;28;20965;-63
2021/07/05 09:10:24;;;;;;;4.07;3.77;;;17.90;99.90;;;;;;5029271;28;20508;-63
2021/07/05 09:13:19;;;;;;;2.00;1.80;;;18.10;99.90;;;;;;5029416;28;20471;-63
2021/07/05 09:15:56;;;;;;;4.13;2.27;;;18.30;99.90;;;;;;5029969;28;21309;-63
2021/07/05 09:18:38;;;;;;;7.10;2.37;;;18.40;99.90;;;;;;5025553;28;20424;-64
2021/07/05 09:21:12;;;;;;;2.47;2.37;;;18.60;99.90;;;;;;5029217;28;20443;-64
2021/07/05 09:24:07;;;;;;;4.40;2.70;;;18.60;99.90;;;;;;5029430;28;20413;-65
2021/07/05 09:26:34;;;;;;;3.43;3.13;;;18.60;99.90;;;;;;5026365;28;20853;-62
2021/07/05 09:29:03;;;;;;;3.03;2.53;;;18.50;99.90;;;;;;5021158;28;20417;-63
2021/07/05 09:31:30;;;;;;;2.07;1.70;;;18.40;99.90;;;;;;5010041;28;20417;-63
2021/07/05 09:33:56;;;;;;;1.57;1.47;;;18.00;99.90;;;;;;5029224;28;20507;-64
2021/07/05 09:36:23;;;;;;;2.40;2.20;;;17.60;99.90;;;;;;5018822;28;20969;-64
2021/07/05 09:38:50;;;;;;;2.67;1.50;;;17.40;99.90;;;;;;5010421;28;20711;-64
2021/07/05 09:41:25;;;;;;;1.90;1.80;;;17.40;99.90;;;;;;5009086;28;20440;-64
2021/07/05 09:43:55;;;;;;;1.50;1.40;;;17.40;99.90;;;;;;5009554;28;20457;-65
2021/07/05 09:46:55;;;;;;;4.70;1.90;;;17.40;99.90;;;;;;5009180;28;20441;-64
2021/07/05 09:49:30;;;;;;;2.40;2.30;;;17.40;99.90;;;;;;5003353;28;20780;-64
2021/07/05 09:52:11;;;;;;;3.43;1.97;;;17.50;99.90;;;;;;5028967;28;20447;-64
2021/07/05 09:54:42;;;;;;;5.03;2.27;;;17.40;99.90;;;;;;5028834;28;20782;-64
2021/07/05 09:57:25;;;;;;;2.33;2.13;;;17.20;99.90;;;;;;5024603;28;20479;-63
2021/07/05 10:00:29;;;;;;;1.73;1.63;;;17.10;99.90;;;;;;5008132;28;20430;-63
2021/07/05 10:02:56;;;;;;;3.27;3.07;;;17.10;99.90;;;;;;5010541;28;20431;-64
2021/07/05 10:05:22;;;;;;;4.03;1.70;;;17.10;99.90;;;;;;5028505;28;20416;-62
2021/07/05 10:08:00;;;;;;;1.77;1.67;;;17.10;99.90;;;;;;5023936;28;20527;-64
2021/07/05 10:10:26;;;;;;;2.13;1.70;;;17.00;99.90;;;;;;5028195;28;20488;-64
2021/07/05 10:13:01;;;;;;;1.93;1.73;;;17.10;99.90;;;;;;5026456;28;20432;-64
2021/07/05 10:15:28;;;;;;;2.00;1.90;;;17.00;99.90;;;;;;5028605;28;20194;-63
2021/07/05 10:17:55;;;;;;;1.77;1.60;;;17.10;99.90;;;;;;5024473;28;20439;-64
2021/07/05 10:20:26;;;;;;;3.50;2.43;;;17.20;99.90;;;;;;5028362;28;20483;-63
2021/07/05 10:22:54;;;;;;;2.00;1.90;;;17.40;99.90;;;;;;5026757;28;20427;-64
2021/07/05 10:25:21;;;;;;;2.70;2.50;;;17.50;99.90;;;;;;5023726;28;20433;-64
2021/07/05 10:27:47;;;;;;;3.23;1.77;;;17.60;99.90;;;;;;5006910;28;20457;-64
2021/07/05 10:30:15;;;;;;;2.83;1.70;;;17.60;99.90;;;;;;5000153;28;21002;-63
2021/07/05 10:32:42;;;;;;;2.90;2.70;;;17.70;99.90;;;;;;5008692;28;20206;-64
2021/07/05 10:35:09;;;;;;;2.90;2.00;;;17.80;99.90;;;;;;5008622;28;20432;-63
2021/07/05 10:37:50;;;;;;;2.47;1.70;;;17.70;99.90;;;;;;5006054;28;20520;-64
2021/07/05 10:40:16;;;;;;;1.80;1.70;;;17.60;99.90;;;;;;5008545;28;20464;-64
2021/07/05 10:42:44;;;;;;;1.90;1.80;;;17.60;99.90;;;;;;5008851;28;21143;-64
2021/07/05 10:45:15;;;;;;;2.13;1.50;;;17.70;99.90;;;;;;5008565;28;20457;-64
2021/07/05 10:47:54;;;;;;;1.73;1.63;;;17.90;99.90;;;;;;5011518;28;20996;-64
2021/07/05 10:50:43;;;;;;;1.67;1.57;;;18.10;99.90;;;;;;4992144;28;20438;-64
2021/07/05 10:53:20;;;;;;;1.67;1.57;;;18.20;99.90;;;;;;4989328;28;20434;-64
2021/07/05 10:55:50;;;;;;;1.90;1.50;;;18.20;99.90;;;;;;4988414;28;20464;-64
2021/07/05 10:58:26;;;;;;;2.10;2.00;;;18.20;99.90;;;;;;5008088;28;20437;-66
2021/07/05 11:00:54;;;;;;;2.03;1.93;;;18.30;99.90;;;;;;5012774;28;20435;-62
2021/07/05 11:03:38;;;;;;;1.60;1.50;;;18.60;99.90;;;;;;5014916;28;21248;-64
2021/07/05 11:06:22;;;;;;;2.17;1.87;;;18.70;99.90;;;;;;5024272;28;20453;-64
2021/07/05 11:08:51;;;;;;;3.53;3.17;;;18.70;99.90;;;;;;5018827;28;20456;-64
2021/07/05 11:11:22;;;;;;;3.23;2.90;;;18.90;99.90;;;;;;5000118;28;20434;-64
2021/07/05 11:14:07;;;;;;;1.87;1.77;;;19.30;99.90;;;;;;4996146;28;20434;-63
2021/07/05 11:17:00;;;;;;;2.70;2.50;;;19.40;99.90;;;;;;5007064;28;20449;-65
2021/07/05 11:19:49;;;;;;;1.70;1.60;;;19.70;99.90;;;;;;5015758;28;20430;-63
2021/07/05 11:22:27;;;;;;;3.17;1.70;;;19.90;99.90;;;;;;5015039;28;20463;-64
2021/07/05 11:25:00;;;;;;;2.23;2.00;;;20.30;99.90;;;;;;5009254;28;20448;-64
2021/07/05 11:27:47;;;;;;;1.73;1.63;;;20.80;99.90;;;;;;5007645;28;20461;-63
2021/07/05 11:30:17;;;;;;;3.43;1.93;;;21.20;99.90;;;;;;5014512;28;20527;-64
2021/07/05 11:33:00;;;;;;;1.87;1.73;;;21.10;99.90;;;;;;5010258;28;20476;-65
2021/07/05 11:35:38;;;;;;;1.80;1.63;;;21.00;99.90;;;;;;5005707;28;20425;-64
2021/07/05 11:38:24;;;;;;;2.50;1.47;;;21.10;99.90;;;;;;5011846;28;20420;-63
2021/07/05 11:40:54;;;;;;;1.80;1.70;;;20.90;99.90;;;;;;5011535;28;20424;-64
2021/07/05 11:43:55;;;;;;;2.60;1.93;;;20.70;99.90;;;;;;5013406;28;20533;-64
2021/07/05 11:46:26;;;;;;;1.80;1.47;;;20.80;99.90;;;;;;5011166;28;20492;-64
2021/07/05 11:48:58;;;;;;;1.57;1.47;;;20.90;99.90;;;;;;5011089;28;20493;-64
2021/07/05 11:51:49;;;;;;;2.30;1.53;;;20.70;99.90;;;;;;5011136;28;20483;-64
2021/07/05 11:54:25;;;;;;;2.67;1.90;;;20.70;99.90;;;;;;5011173;28;20999;-63
2021/07/05 11:56:55;;;;;;;1.87;1.77;;;20.60;99.90;;;;;;5010930;28;20854;-64
2021/07/05 11:59:33;;;;;;;4.67;2.10;;;20.40;99.90;;;;;;5010867;28;20429;-63
2021/07/05 12:01:59;;;;;;;5.13;2.37;;;20.40;99.90;;;;;;5011086;28;20422;-65
2021/07/05 12:04:33;;;;;;;2.13;2.00;;;20.40;99.90;;;;;;5010900;28;20432;-64
2021/07/05 12:06:59;;;;;;;2.03;1.93;;;20.40;99.90;;;;;;5010635;28;20238;-64
2021/07/05 12:09:27;;;;;;;3.47;2.07;;;20.20;99.90;;;;;;5010851;28;20445;-64
2021/07/05 12:11:52;;;;;;;1.77;1.67;;;20.20;99.90;;;;;;5010957;28;20418;-65
2021/07/05 12:14:21;;;;;;;2.30;2.10;;;19.90;99.90;;;;;;5010716;28;20476;-65
2021/07/05 12:16:54;;;;;;;2.20;2.00;;;19.70;99.90;;;;;;5010685;28;20203;-65
2021/07/05 12:19:20;;;;;;;2.00;1.87;;;19.70;99.90;;;;;;5023676;28;20516;-64
2021/07/05 12:21:52;;;;;;;1.97;1.83;;;19.70;99.90;;;;;;5010374;28;20454;-64
2021/07/05 12:24:30;;;;;;;3.40;2.00;;;19.70;99.90;;;;;;5010560;28;20446;-64
2021/07/05 12:26:58;;;;;;;1.90;1.80;;;19.90;99.90;;;;;;5009486;28;20448;-65
2021/07/05 12:29:36;;;;;;;1.80;1.70;;;20.20;99.90;;;;;;5001505;28;20783;-64
2021/07/05 12:32:07;;;;;;;4.43;2.30;;;20.50;99.90;;;;;;4990791;28;20426;-65
2021/07/05 12:35:09;;;;;;;3.13;2.23;;;20.80;99.90;;;;;;4990815;28;20435;-65
2021/07/05 12:37:48;;;;;;;2.43;2.00;;;20.90;99.90;;;;;;4995146;28;20786;-63
2021/07/05 12:40:24;;;;;;;2.17;1.97;;;21.40;99.90;;;;;;5010190;28;20432;-64
2021/07/05 12:42:59;;;;;;;2.47;1.63;;;21.60;99.90;;;;;;5010170;28;20429;-64
2021/07/05 12:45:34;;;;;;;3.00;2.20;;;22.10;99.90;;;;;;5010261;28;20474;-64
2021/07/05 12:48:19;;;;;;;1.90;1.80;;;22.40;99.90;;;;;;5010039;28;20495;-65
2021/07/05 12:51:13;;;;;;;2.00;1.90;;;22.70;99.90;;;;;;5009979;28;20454;-65
2021/07/05 12:53:41;;;;;;;1.53;1.43;;;23.00;99.90;;;;;;5009209;28;20536;-64
2021/07/05 12:56:09;;;;;;;2.60;1.40;;;23.50;99.90;;;;;;5008373;28;20464;-64